createdAt,value
2023-03-29T00:01:35.383Z,2.65
2023-03-29T00:04:09.028Z,4.72
2023-03-29T00:06:35.648Z,5.40
2023-03-29T00:09:02.399Z,4.13
2023-03-29T00:11:33.481Z,5.45
2023-03-29T00:13:59.795Z,3.03
2023-03-29T00:16:27.404Z,3.85
2023-03-29T00:18:58.880Z,4.03
2023-03-29T00:21:27.640Z,3.70
2023-03-29T00:23:53.968Z,3.83
2023-03-29T00:26:20.259Z,4.53
2023-03-29T00:28:46.574Z,3.67
2023-03-29T00:31:17.689Z,5.72
2023-03-29T00:33:45.710Z,8.93
2023-03-29T00:36:17.007Z,4.05
2023-03-29T00:38:46.325Z,4.07
2023-03-29T00:41:15.127Z,2.40
2023-03-29T00:44:01.055Z,2.33
2023-03-29T00:46:31.030Z,4.38
2023-03-29T00:49:04.789Z,4.75
2023-03-29T00:51:34.643Z,2.92
2023-03-29T00:54:05.904Z,5.00
2023-03-29T00:56:36.665Z,1.92
2023-03-29T01:01:56.075Z,4.28
2023-03-29T01:04:46.669Z,2.13
2023-03-29T01:07:27.481Z,4.82
2023-03-29T01:09:59.683Z,4.22
2023-03-29T01:12:33.432Z,3.03
2023-03-29T01:15:05.373Z,4.45
2023-03-29T01:17:31.977Z,4.10
2023-03-29T01:20:03.774Z,5.47
2023-03-29T01:22:44.073Z,3.50
2023-03-29T01:25:20.546Z,6.47
2023-03-29T01:28:13.417Z,2.60
2023-03-29T01:30:48.376Z,2.95
2023-03-29T01:33:20.741Z,2.72
2023-03-29T01:36:13.818Z,2.58
2023-03-29T01:38:47.775Z,2.78
2023-03-29T01:41:14.202Z,3.58
2023-03-29T01:43:50.462Z,3.17
2023-03-29T01:46:35.362Z,2.92
2023-03-29T01:49:14.895Z,4.43
2023-03-29T01:51:59.764Z,5.07
2023-03-29T01:54:36.057Z,5.60
2023-03-29T01:57:08.629Z,2.20
2023-03-29T01:59:39.164Z,4.15
2023-03-29T02:02:13.276Z,3.88
2023-03-29T02:04:43.566Z,4.72
2023-03-29T02:07:10.548Z,2.00
2023-03-29T02:09:38.669Z,2.58
2023-03-29T02:12:07.706Z,3.35
2023-03-29T02:14:34.118Z,3.97
2023-03-29T02:17:24.838Z,3.72
2023-03-29T02:19:59.968Z,4.93
2023-03-29T02:22:33.629Z,3.80
2023-03-29T02:25:04.104Z,4.93
2023-03-29T02:27:30.506Z,6.07
2023-03-29T02:29:59.188Z,8.57
2023-03-29T02:32:34.160Z,4.53
2023-03-29T02:35:07.250Z,4.90
2023-03-29T02:37:40.024Z,3.88
2023-03-29T02:40:08.760Z,2.20
2023-03-29T02:42:36.474Z,6.25
2023-03-29T02:45:06.831Z,4.82
2023-03-29T02:47:42.206Z,3.72
2023-03-29T02:50:08.822Z,3.15
2023-03-29T02:52:40.629Z,5.40
2023-03-29T02:55:12.334Z,7.80
2023-03-29T02:57:38.679Z,5.93
2023-03-29T03:00:07.928Z,4.82
2023-03-29T03:02:37.059Z,6.05
2023-03-29T03:05:04.674Z,4.97
2023-03-29T03:07:31.251Z,5.72
2023-03-29T03:10:00.135Z,6.22
2023-03-29T03:12:30.185Z,4.78
2023-03-29T03:14:56.544Z,5.00
2023-03-29T03:17:22.913Z,6.50
2023-03-29T03:19:51.903Z,6.63
2023-03-29T03:22:18.228Z,4.65
2023-03-29T03:24:52.925Z,5.88
2023-03-29T03:27:19.262Z,5.45
2023-03-29T03:29:48.046Z,5.60
2023-03-29T03:32:14.406Z,3.22
2023-03-29T03:34:43.518Z,5.72
2023-03-29T03:37:09.837Z,4.35
2023-03-29T03:39:37.318Z,7.32
2023-03-29T03:42:11.279Z,3.72
2023-03-29T03:44:37.630Z,6.10
2023-03-29T03:47:05.044Z,4.57
2023-03-29T03:49:31.385Z,3.78
2023-03-29T03:51:57.937Z,4.43
2023-03-29T03:54:24.352Z,3.65
2023-03-29T03:56:56.801Z,6.72
2023-03-29T03:59:23.367Z,3.47
2023-03-29T04:01:49.714Z,5.65
2023-03-29T04:04:17.432Z,3.30
2023-03-29T04:06:43.999Z,5.78
2023-03-29T04:09:13.088Z,4.95
2023-03-29T04:11:39.523Z,5.43
2023-03-29T04:14:06.059Z,3.80
2023-03-29T04:16:32.440Z,4.65
2023-03-29T04:18:58.813Z,4.85
2023-03-29T04:21:25.285Z,3.53
2023-03-29T04:23:52.129Z,3.25
2023-03-29T04:26:18.549Z,5.22
2023-03-29T04:28:44.947Z,4.47
2023-03-29T04:31:12.883Z,3.42
2023-03-29T04:33:44.218Z,3.67
2023-03-29T04:36:13.913Z,5.57
2023-03-29T04:38:43.356Z,5.25
2023-03-29T04:41:13.777Z,5.43
2023-03-29T04:43:42.884Z,4.88
2023-03-29T04:46:15.420Z,4.78
2023-03-29T04:48:41.961Z,3.88
2023-03-29T04:51:08.259Z,5.03
2023-03-29T04:53:35.066Z,3.97
2023-03-29T04:56:04.891Z,4.70
2023-03-29T04:58:32.527Z,3.63
2023-03-29T05:00:59.581Z,3.95
2023-03-29T05:03:28.851Z,4.63
2023-03-29T05:05:55.285Z,3.75
2023-03-29T05:08:21.627Z,4.05
2023-03-29T05:10:48.035Z,4.20
2023-03-29T05:13:14.978Z,3.92
2023-03-29T05:15:42.366Z,4.57
2023-03-29T05:18:17.610Z,4.63
2023-03-29T05:20:44.282Z,6.40
2023-03-29T05:23:10.593Z,5.28
2023-03-29T05:25:36.917Z,5.57
2023-03-29T05:28:04.593Z,3.13
2023-03-29T05:30:36.933Z,4.75
2023-03-29T05:33:03.380Z,5.90
2023-03-29T05:35:32.911Z,4.90
2023-03-29T05:37:59.467Z,6.45
2023-03-29T05:40:26.052Z,2.95
2023-03-29T05:42:53.104Z,3.72
2023-03-29T05:45:21.839Z,5.25
2023-03-29T05:47:50.614Z,4.60
2023-03-29T05:50:19.447Z,5.00
2023-03-29T05:52:48.301Z,6.93
2023-03-29T05:55:14.680Z,5.65
2023-03-29T05:57:43.507Z,3.15
2023-03-29T06:00:10.379Z,5.78
2023-03-29T06:02:36.870Z,6.93
2023-03-29T06:05:03.677Z,4.22
2023-03-29T06:07:30.148Z,2.40
2023-03-29T06:09:56.458Z,4.28
2023-03-29T06:12:24.010Z,5.88
2023-03-29T06:14:50.465Z,5.10
2023-03-29T06:26:27.855Z,4.85
2023-03-29T06:31:30.277Z,3.15
2023-03-29T06:33:58.154Z,7.28
2023-03-29T06:36:24.889Z,7.10
2023-03-29T06:38:54.332Z,4.20
2023-03-29T06:41:21.029Z,4.00
2023-03-29T06:43:47.667Z,5.80
2023-03-29T06:46:14.486Z,6.10
2023-03-29T06:48:47.393Z,6.18
2023-03-29T06:51:16.389Z,7.63
2023-03-29T06:53:43.524Z,5.85
2023-03-29T06:56:11.163Z,4.25
2023-03-29T06:58:37.831Z,6.35
2023-03-29T07:01:11.540Z,6.57
2023-03-29T07:03:38.457Z,5.93
2023-03-29T07:06:09.483Z,7.30
2023-03-29T07:08:40.675Z,5.10
2023-03-29T07:11:08.947Z,11.73
2023-03-29T07:13:37.969Z,7.43
2023-03-29T07:16:08.520Z,5.68
2023-03-29T07:18:38.153Z,5.00
2023-03-29T07:21:08.246Z,5.90
2023-03-29T07:23:37.381Z,7.78
2023-03-29T07:29:40.093Z,8.63
2023-03-29T07:32:07.934Z,8.98
2023-03-29T07:34:34.728Z,8.50
2023-03-29T07:37:01.504Z,5.28
2023-03-29T07:39:39.939Z,6.55
2023-03-29T07:42:07.894Z,5.30
2023-03-29T07:44:41.750Z,5.43
2023-03-29T07:47:11.295Z,7.15
2023-03-29T07:49:44.544Z,7.35
2023-03-29T07:52:11.118Z,4.55
2023-03-29T07:54:38.345Z,5.93
2023-03-29T07:57:05.352Z,11.13
2023-03-29T07:59:33.491Z,8.90
2023-03-29T08:02:04.821Z,5.18
2023-03-29T08:04:34.437Z,8.75
2023-03-29T08:07:01.379Z,9.10
2023-03-29T08:09:30.947Z,7.35
2023-03-29T08:12:00.150Z,8.80
2023-03-29T08:14:27.073Z,8.80
2023-03-29T08:17:01.507Z,11.10
2023-03-29T08:19:28.442Z,7.22
2023-03-29T08:22:01.883Z,8.55
2023-03-29T08:24:29.092Z,8.50
2023-03-29T08:26:58.500Z,8.48
2023-03-29T08:29:31.663Z,12.60
2023-03-29T08:31:58.094Z,8.60
2023-03-29T08:34:24.455Z,10.00
2023-03-29T08:36:50.953Z,9.57
2023-03-29T08:39:19.466Z,9.48
2023-03-29T08:41:59.580Z,12.73
2023-03-29T08:44:54.951Z,12.45
2023-03-29T08:47:29.958Z,8.25
2023-03-29T08:49:57.756Z,8.63
2023-03-29T08:52:51.261Z,13.07
2023-03-29T08:55:24.859Z,9.00
2023-03-29T08:57:58.665Z,9.45
2023-03-29T09:00:34.292Z,12.45
2023-03-29T09:03:00.763Z,8.20
2023-03-29T09:05:32.714Z,7.70
2023-03-29T09:08:01.626Z,8.27
2023-03-29T09:10:40.622Z,9.82
2023-03-29T09:13:39.479Z,7.88
2023-03-29T09:16:41.545Z,9.95
2023-03-29T09:19:44.678Z,8.95
2023-03-29T09:22:43.915Z,11.07
2023-03-29T09:25:25.459Z,9.43
2023-03-29T09:28:02.185Z,9.82
2023-03-29T09:30:39.615Z,14.10
2023-03-29T09:33:17.020Z,10.70
2023-03-29T09:35:53.102Z,11.70
2023-03-29T09:38:27.134Z,10.45
2023-03-29T09:40:57.709Z,7.53
2023-03-29T09:46:23.098Z,8.73
2023-03-29T09:48:50.679Z,9.55
2023-03-29T09:51:19.354Z,12.43
2023-03-29T09:53:48.920Z,8.43
2023-03-29T09:56:17.634Z,10.35
2023-03-29T09:58:45.372Z,10.48
2023-03-29T10:01:15.387Z,10.13
2023-03-29T10:03:48.727Z,13.13
2023-03-29T10:06:20.553Z,9.43
2023-03-29T10:09:08.857Z,10.18
2023-03-29T10:14:15.602Z,10.57
2023-03-29T10:16:43.807Z,10.15
2023-03-29T10:19:19.573Z,12.35
2023-03-29T10:21:50.441Z,12.05
2023-03-29T10:24:29.471Z,13.60
2023-03-29T10:27:09.580Z,12.85
2023-03-29T10:29:48.027Z,16.88
2023-03-29T10:32:26.050Z,12.88
2023-03-29T10:34:52.953Z,14.90
2023-03-29T10:37:24.587Z,12.55
2023-03-29T10:39:55.292Z,14.57
2023-03-29T10:42:25.269Z,12.20
2023-03-29T10:44:54.703Z,12.20
2023-03-29T10:47:23.317Z,15.18
2023-03-29T10:49:56.366Z,12.65
2023-03-29T10:52:23.382Z,15.95
2023-03-29T10:54:51.598Z,17.20
2023-03-29T10:57:29.573Z,16.35
2023-03-29T11:00:17.404Z,15.25
2023-03-29T11:03:06.027Z,14.02
2023-03-29T11:05:36.015Z,9.88
2023-03-29T11:08:29.099Z,19.95
2023-03-29T11:11:06.831Z,15.55
2023-03-29T11:13:37.713Z,17.80
2023-03-29T11:16:35.481Z,16.08
2023-03-29T11:19:35.012Z,14.77
2023-03-29T11:22:22.824Z,16.55
2023-03-29T11:25:23.397Z,16.55
2023-03-29T11:28:01.764Z,16.92
2023-03-29T11:30:41.514Z,13.75
2023-03-29T11:33:21.643Z,16.88
2023-03-29T11:36:08.675Z,16.70
2023-03-29T11:38:53.427Z,17.45
2023-03-29T11:41:28.005Z,11.05
2023-03-29T11:44:10.858Z,13.55
2023-03-29T11:46:44.772Z,18.45
2023-03-29T11:49:26.569Z,16.70
2023-03-29T11:52:16.610Z,17.42
2023-03-29T11:54:52.338Z,17.80
2023-03-29T11:57:42.239Z,20.65
2023-03-29T12:00:21.379Z,19.48
2023-03-29T12:02:53.898Z,18.70
2023-03-29T12:05:30.873Z,18.67
2023-03-29T12:08:13.406Z,14.20
2023-03-29T12:10:53.272Z,17.75
2023-03-29T12:13:33.762Z,16.58
2023-03-29T12:16:08.736Z,13.63
2023-03-29T12:18:48.538Z,19.45
2023-03-29T12:21:19.875Z,18.75
2023-03-29T12:23:49.747Z,17.80
2023-03-29T12:26:46.596Z,19.05
2023-03-29T12:29:41.665Z,19.67
2023-03-29T12:32:29.925Z,20.25
2023-03-29T12:37:58.873Z,11.52
2023-03-29T12:40:27.772Z,21.67
2023-03-29T12:43:07.719Z,24.70
2023-03-29T12:45:39.280Z,20.08
2023-03-29T12:48:07.455Z,22.92
2023-03-29T12:50:44.382Z,21.38
2023-03-29T12:53:22.814Z,22.23
2023-03-29T12:55:54.456Z,19.00
2023-03-29T12:58:29.476Z,22.63
2023-03-29T13:01:08.977Z,19.17
2023-03-29T13:03:47.617Z,18.98
2023-03-29T13:06:29.287Z,20.98
2023-03-29T13:09:26.381Z,17.58
2023-03-29T13:11:54.695Z,18.33
2023-03-29T13:14:24.139Z,16.90
2023-03-29T13:16:52.187Z,22.00
2023-03-29T13:19:27.770Z,20.73
2023-03-29T13:22:12.846Z,18.13
2023-03-29T13:24:46.650Z,15.05
2023-03-29T13:27:37.738Z,19.60
2023-03-29T13:30:23.154Z,18.10
2023-03-29T13:32:49.451Z,19.17
2023-03-29T13:35:27.830Z,17.92
2023-03-29T13:38:18.169Z,21.00
2023-03-29T13:41:03.007Z,22.17
2023-03-29T13:43:33.433Z,17.65
2023-03-29T13:48:48.736Z,16.15
2023-03-29T13:51:18.204Z,18.15
2023-03-29T13:53:51.175Z,18.52
2023-03-29T13:56:26.835Z,17.17
2023-03-29T13:59:07.637Z,17.67
2023-03-29T14:01:41.844Z,14.52
2023-03-29T14:04:15.834Z,17.60
2023-03-29T14:06:47.890Z,16.88
2023-03-29T14:09:20.033Z,20.23
2023-03-29T14:11:50.747Z,17.08
2023-03-29T14:14:25.640Z,17.48
2023-03-29T14:16:55.366Z,18.05
2023-03-29T14:19:38.855Z,19.05
2023-03-29T14:22:13.046Z,15.55
2023-03-29T14:24:45.521Z,17.40
2023-03-29T14:27:12.306Z,16.52
2023-03-29T14:29:38.750Z,16.08
2023-03-29T14:32:12.525Z,18.75
2023-03-29T14:34:41.737Z,18.45
2023-03-29T14:37:15.070Z,17.88
2023-03-29T14:39:41.880Z,18.73
2023-03-29T14:42:28.897Z,13.15
2023-03-29T14:45:03.086Z,13.32
2023-03-29T14:47:31.952Z,14.27
2023-03-29T14:49:59.152Z,14.02
2023-03-29T14:52:29.517Z,15.35
2023-03-29T14:57:33.664Z,12.40
2023-03-29T15:00:16.505Z,12.30
2023-03-29T15:03:15.833Z,11.85
2023-03-29T15:05:47.778Z,15.15
2023-03-29T15:08:19.169Z,13.48
2023-03-29T15:10:45.576Z,13.18
2023-03-29T15:13:20.109Z,13.10
2023-03-29T15:15:47.141Z,8.85
2023-03-29T15:18:16.135Z,11.18
2023-03-29T15:20:48.159Z,10.25
2023-03-29T15:23:14.660Z,8.75
2023-03-29T15:25:54.908Z,10.35
2023-03-29T15:28:26.099Z,9.95
2023-03-29T15:31:07.145Z,8.07
2023-03-29T15:33:36.886Z,7.78
2023-03-29T15:36:09.188Z,8.77
2023-03-29T15:38:43.992Z,10.38
2023-03-29T15:41:12.191Z,10.15
2023-03-29T15:43:44.689Z,10.35
2023-03-29T15:46:17.155Z,10.82
2023-03-29T15:48:43.495Z,10.23
2023-03-29T15:51:11.540Z,10.40
2023-03-29T15:53:38.933Z,10.77
2023-03-29T15:56:08.689Z,8.35
2023-03-29T15:58:39.268Z,8.07
2023-03-29T16:01:21.612Z,5.63
2023-03-29T16:03:48.313Z,7.70
2023-03-29T16:06:15.394Z,6.43
2023-03-29T16:08:41.949Z,9.10
2023-03-29T16:11:08.275Z,8.30
2023-03-29T16:13:36.315Z,8.40
2023-03-29T16:16:03.006Z,7.93
2023-03-29T16:18:29.609Z,9.38
2023-03-29T16:21:01.115Z,7.90
2023-03-29T16:23:31.878Z,7.45
2023-03-29T16:25:58.238Z,12.27
2023-03-29T16:28:26.452Z,11.13
2023-03-29T16:30:52.799Z,14.32
2023-03-29T16:33:19.140Z,11.05
2023-03-29T16:35:45.484Z,9.85
2023-03-29T16:38:14.095Z,7.70
2023-03-29T16:40:40.509Z,7.40
2023-03-29T16:43:14.640Z,9.02
2023-03-29T16:45:42.030Z,9.77
2023-03-29T16:48:16.303Z,9.05
2023-03-29T16:50:43.529Z,7.50
2023-03-29T16:53:10.118Z,7.00
2023-03-29T16:55:39.540Z,8.32
2023-03-29T16:58:08.905Z,8.93
2023-03-29T17:00:35.298Z,10.27
2023-03-29T17:03:01.690Z,9.23
2023-03-29T17:05:37.039Z,10.70
2023-03-29T17:08:07.282Z,12.23
2023-03-29T17:10:35.833Z,8.85
2023-03-29T17:13:04.566Z,7.90
2023-03-29T17:15:35.595Z,9.70
2023-03-29T17:18:03.390Z,9.43
2023-03-29T17:20:33.291Z,8.77
2023-03-29T17:23:04.271Z,10.52
2023-03-29T17:25:33.123Z,9.52
2023-03-29T17:28:00.149Z,7.47
2023-03-29T17:30:28.631Z,7.80
2023-03-29T17:32:56.776Z,7.63
2023-03-29T17:35:30.916Z,7.88
2023-03-29T17:37:58.367Z,9.98
2023-03-29T17:40:25.037Z,8.65
2023-03-29T17:42:54.735Z,7.13
2023-03-29T17:45:21.795Z,6.75
2023-03-29T17:47:48.246Z,9.68
2023-03-29T17:50:17.447Z,9.68
2023-03-29T17:52:57.020Z,10.00
2023-03-29T17:55:23.363Z,11.45
2023-03-29T17:57:49.803Z,9.07
2023-03-29T18:00:16.686Z,11.20
2023-03-29T18:02:43.298Z,8.43
2023-03-29T18:05:09.961Z,9.10
2023-03-29T18:07:39.818Z,9.43
2023-03-29T18:10:08.867Z,10.55
2023-03-29T18:12:35.723Z,10.52
2023-03-29T18:15:02.973Z,13.30
2023-03-29T18:17:31.727Z,15.05
2023-03-29T18:19:58.200Z,11.65
2023-03-29T18:22:24.711Z,10.48
2023-03-29T18:24:51.074Z,10.00
2023-03-29T18:27:17.748Z,10.02
2023-03-29T18:29:44.259Z,11.52
2023-03-29T18:32:11.247Z,9.38
2023-03-29T18:34:37.800Z,12.98
2023-03-29T18:37:04.097Z,11.30
2023-03-29T18:39:33.462Z,14.25
2023-03-29T18:42:00.107Z,17.25
2023-03-29T18:44:26.466Z,13.02
2023-03-29T18:46:53.108Z,12.07
2023-03-29T18:49:19.549Z,14.15
2023-03-29T18:51:45.834Z,10.50
2023-03-29T18:54:12.205Z,10.30
2023-03-29T18:56:38.682Z,9.60
2023-03-29T18:59:06.320Z,11.43
2023-03-29T19:01:35.187Z,9.45
2023-03-29T19:04:01.965Z,12.18
2023-03-29T19:06:28.324Z,10.15
2023-03-29T19:08:54.764Z,11.30
2023-03-29T19:11:21.141Z,13.70
2023-03-29T19:13:47.444Z,14.13
2023-03-29T19:16:13.850Z,15.02
2023-03-29T19:18:40.213Z,13.02
2023-03-29T19:21:09.332Z,15.40
2023-03-29T19:23:37.513Z,13.02
2023-03-29T19:26:05.746Z,12.45
2023-03-29T19:28:35.232Z,12.73
2023-03-29T19:31:10.025Z,12.07
2023-03-29T19:33:36.403Z,13.05
2023-03-29T19:36:06.359Z,12.77
2023-03-29T19:38:32.945Z,9.98
2023-03-29T19:41:01.781Z,10.50
2023-03-29T19:43:30.315Z,11.82
2023-03-29T19:45:56.653Z,9.43
2023-03-29T19:48:24.051Z,9.70
2023-03-29T19:51:02.721Z,7.43
2023-03-29T19:53:30.067Z,13.20
2023-03-29T19:55:56.734Z,9.90
2023-03-29T19:58:23.125Z,9.70
2023-03-29T20:00:49.510Z,13.10
2023-03-29T20:03:17.535Z,9.27
2023-03-29T20:05:46.251Z,8.57
2023-03-29T20:08:14.123Z,12.02
2023-03-29T20:10:40.553Z,10.02
2023-03-29T20:13:06.925Z,10.00
2023-03-29T20:15:33.833Z,9.98
2023-03-29T20:18:00.259Z,10.57
2023-03-29T20:20:28.621Z,12.10
2023-03-29T20:22:55.101Z,11.52
2023-03-29T20:25:26.272Z,9.32
2023-03-29T20:27:52.629Z,10.48
2023-03-29T20:30:21.502Z,12.48
2023-03-29T20:32:47.874Z,12.18
2023-03-29T20:35:16.551Z,11.63
2023-03-29T20:37:42.899Z,11.82
2023-03-29T20:40:10.173Z,11.32
2023-03-29T20:42:37.879Z,10.35
2023-03-29T20:45:08.296Z,12.43
2023-03-29T20:47:37.160Z,11.27
2023-03-29T20:50:05.977Z,12.65
2023-03-29T20:52:32.320Z,10.48
2023-03-29T20:54:58.628Z,10.88
2023-03-29T20:57:24.998Z,12.43
2023-03-29T20:59:51.299Z,13.57
2023-03-29T21:02:21.407Z,10.73
2023-03-29T21:04:52.772Z,5.75
2023-03-29T21:07:22.098Z,12.07
2023-03-29T21:09:48.465Z,9.27
2023-03-29T21:12:14.809Z,10.50
2023-03-29T21:14:41.288Z,11.13
2023-03-29T21:17:07.627Z,9.65
2023-03-29T21:19:37.318Z,7.53
2023-03-29T21:22:06.436Z,10.63
2023-03-29T21:24:33.517Z,10.45
2023-03-29T21:27:02.701Z,8.93
2023-03-29T21:29:29.054Z,8.77
2023-03-29T21:31:55.624Z,9.00
2023-03-29T21:34:22.155Z,8.60
2023-03-29T21:36:50.805Z,6.13
2023-03-29T21:39:17.137Z,7.75
2023-03-29T21:41:46.402Z,11.52
2023-03-29T21:44:13.916Z,8.52
2023-03-29T21:46:41.476Z,10.27
2023-03-29T21:49:07.862Z,10.88
2023-03-29T21:51:34.271Z,7.65
2023-03-29T21:54:02.405Z,7.75
2023-03-29T21:56:30.394Z,13.63
2023-03-29T21:58:56.738Z,7.22
2023-03-29T22:01:23.073Z,7.90
2023-03-29T22:03:49.402Z,9.13
2023-03-29T22:06:15.736Z,9.05
2023-03-29T22:08:44.424Z,12.60
2023-03-29T22:11:13.377Z,8.32
2023-03-29T22:13:40.504Z,8.63
2023-03-29T22:16:09.060Z,13.90
2023-03-29T22:18:38.703Z,9.07
2023-03-29T22:21:05.144Z,11.15
2023-03-29T22:23:33.733Z,8.07
2023-03-29T22:26:04.986Z,8.90
2023-03-29T22:28:35.125Z,6.32
2023-03-29T22:31:04.995Z,9.23
2023-03-29T22:33:35.369Z,6.38
2023-03-29T22:36:03.129Z,6.72
2023-03-29T22:38:29.533Z,5.72
2023-03-29T22:40:55.900Z,4.50
2023-03-29T22:43:22.237Z,7.53
2023-03-29T22:45:48.820Z,5.57
2023-03-29T22:48:21.141Z,6.13
2023-03-29T22:50:47.811Z,9.65
2023-03-29T22:53:14.323Z,7.60
2023-03-29T22:55:41.853Z,7.95
2023-03-29T22:58:18.694Z,6.60
2023-03-29T23:00:47.973Z,6.05
2023-03-29T23:03:14.542Z,5.60
2023-03-29T23:05:40.837Z,5.90
2023-03-29T23:08:07.284Z,5.65
2023-03-29T23:10:33.852Z,5.95
2023-03-29T23:13:01.836Z,7.80
2023-03-29T23:15:29.587Z,7.03
2023-03-29T23:17:58.517Z,6.55
2023-03-29T23:20:27.284Z,5.78
2023-03-29T23:22:53.626Z,7.38
2023-03-29T23:25:19.963Z,5.20
2023-03-29T23:27:46.256Z,6.25
2023-03-29T23:30:12.658Z,5.90
2023-03-29T23:32:39.004Z,5.07
2023-03-29T23:35:08.062Z,5.50
2023-03-29T23:37:37.248Z,5.72
2023-03-29T23:40:14.383Z,5.35
2023-03-29T23:42:46.614Z,5.68
2023-03-29T23:45:15.480Z,5.47
2023-03-29T23:47:46.200Z,6.57
2023-03-29T23:50:16.113Z,6.95
2023-03-29T23:52:46.490Z,8.65
2023-03-29T23:57:45.926Z,7.13
